Portada
METAR-TAF:

METAR-TAF

Aeropuertos :

Alicante, España

Aeropuerto de Alicante-Elche

latitud: 38-17N, longitud: 000-33W, altitud: 43 m

Observación

El informe se hizo hace 39 minutos, a las 07:30 UTC
Viento 2 kt con dirección variable
Temperatura 15°C
Humedad 63%
Presión 1025 hPa
Visibilidad 10 km o más
Escasas nubes a una altura de 4500 ft

METAR: LEAL 280730Z VRB02KT 9999 FEW045 15/08 Q1025 NOSIG

Hora: 10:09 (08:09 UTC)

Pronóstico

El informe se hizo hace 3 horas y 9 minutos, a las 05:00 UTC
Pronóstico válido del 28 a las 06 UTC al 29 a las 06 UTC
Viento 5 kt del oeste-noroeste
Visibilidad 10 km o más
Escasas nubes a una altura de 1400 ft
Evolucionando progresivamente
del 28 a las 09 UTC al 28 a las 12 UTC
Viento 9 kt del este-sureste
Evolucionando progresivamente
del 28 a las 18 UTC al 28 a las 20 UTC
Viento 5 kt del oeste-noroeste

TAF: LEAL 280500Z 2806/2906 30005KT 9999 FEW014 TX21/2812Z TN10/2806Z BECMG 2809/2812 12009KT BECMG 2818/2820 30005KT

Observaciones y pronósticos meteorológicos de más de 4000 aeropuertos (mensajes METAR y TAF).

Los puntos amarillos y rojos representan las estaciones disponibles.

Ponga el ratón en el punto deseado para ver el nombre de la estación.

Haga clic para ver las observaciones y los pronósticos meteorológicos.

Para cambiar el mapa : haga clic en los botones verdes con una cruz de color negro para hacer un zoom, en el botón verde con un guión para alejar o en las flechas verdes para mapas adyacentes.


METAR-TAF: